Time;durP1;ratioP1;P1;durP2;ratioP2;P2;SDS_P1;SDS_P2;PMS_P1;PMS_P2;Temp;Humidity;BMP_temperature;BMP_pressure;BME280_temperature;BME280_humidity;BME280_pressure;Samples;Min_cycle;Max_cycle;Signal;HPM_P1;HPM_P2
2021/11/08 00:01:09;;;;;;;27.90;14.27;;;;;;;12.46;75.98;100346.80;125305;1099;104146;-78
2021/11/08 00:03:43;;;;;;;29.30;14.50;;;;;;;12.49;76.05;100341.62;125225;1099;104140;-79
2021/11/08 00:06:14;;;;;;;;;;;;;;;12.50;75.46;100333.76;125314;1099;104194;-79
2021/11/08 00:08:46;;;;;;;29.80;15.20;;;;;;;12.50;75.70;100328.50;125166;1099;104175;-79
2021/11/08 00:11:17;;;;;;;28.40;14.40;;;;;;;12.50;75.91;100332.88;126307;1099;104146;-77
2021/11/08 00:13:48;;;;;;;27.67;14.83;;;;;;;12.49;75.72;100336.35;126306;1099;104222;-78
2021/11/08 00:16:28;;;;;;;31.10;15.17;;;;;;;12.51;75.56;100334.64;125184;1099;104141;-79
2021/11/08 00:19:16;;;;;;;30.63;14.47;;;;;;;12.51;76.19;100339.91;125206;1099;104288;-78
2021/11/08 00:21:48;;;;;;;29.27;14.73;;;;;;;12.48;75.91;100356.53;125319;1099;104143;-78
2021/11/08 00:24:23;;;;;;;30.20;15.47;;;;;;;12.47;76.09;100365.27;125210;1099;104297;-79
2021/11/08 00:26:55;;;;;;;30.67;15.90;;;;;;;12.47;76.02;100346.84;125355;1099;104165;-79
2021/11/08 00:29:26;;;;;;;30.37;15.23;;;;;;;12.45;76.51;100322.23;125206;1099;105691;-79
2021/11/08 00:31:56;;;;;;;29.73;14.77;;;;;;;12.43;76.18;100367.77;125310;1099;104153;-79
2021/11/08 00:34:27;;;;;;;30.30;14.80;;;;;;;12.43;76.06;100368.66;125264;1099;104303;-78
2021/11/08 00:36:58;;;;;;;29.53;14.60;;;;;;;12.45;76.54;100385.39;125331;1099;104203;-78
2021/11/08 00:39:29;;;;;;;27.87;14.53;;;;;;;12.46;76.24;100396.80;125194;1099;105318;-79
2021/11/08 00:42:00;;;;;;;27.60;14.97;;;;;;;12.47;76.35;100395.96;126277;1099;104242;-79
2021/11/08 00:44:31;;;;;;;31.07;14.70;;;;;;;12.51;76.72;100397.80;126350;1099;104306;-78
2021/11/08 00:47:02;;;;;;;31.50;15.03;;;;;;;12.52;76.55;100384.69;126299;1099;105267;-79
2021/11/08 00:49:32;;;;;;;29.93;14.83;;;;;;;12.54;76.33;100384.72;126146;1099;105678;-79
2021/11/08 00:52:03;;;;;;;28.37;14.17;;;;;;;12.57;76.66;100390.98;126332;1099;104208;-78
2021/11/08 00:54:34;;;;;;;29.20;15.20;;;;;;;12.60;76.52;100390.15;126342;1099;104245;-79
2021/11/08 00:57:08;;;;;;;30.33;15.10;;;;;;;12.63;76.23;100394.61;126313;1099;102324;-78
2021/11/08 00:59:39;;;;;;;29.87;15.50;;;;;;;12.65;76.75;100382.37;126285;1099;104152;-79
2021/11/08 01:02:10;;;;;;;29.83;14.20;;;;;;;12.65;76.62;100379.73;126341;1099;104139;-78
2021/11/08 01:04:41;;;;;;;30.40;15.40;;;;;;;12.64;76.15;100370.08;126326;1099;104146;-78
2021/11/08 01:07:12;;;;;;;28.33;14.67;;;;;;;12.62;76.57;100385.84;126337;1099;104175;-78
2021/11/08 01:09:44;;;;;;;32.03;15.43;;;;;;;12.64;76.66;100401.67;126307;1099;104314;-80
2021/11/08 01:12:16;;;;;;;31.33;15.50;;;;;;;12.63;76.75;100405.14;126288;1099;104169;-79
2021/11/08 01:14:47;;;;;;;27.75;14.75;;;;;;;12.64;76.85;100399.04;126363;1099;104238;-79
2021/11/08 01:17:18;;;;;;;28.63;14.80;;;;;;;12.63;76.29;100400.75;126278;1099;104219;-79
2021/11/08 01:19:51;;;;;;;29.67;14.43;;;;;;;12.63;76.87;100395.48;126314;1098;104156;-79
2021/11/08 01:22:22;;;;;;;27.87;15.07;;;;;;;12.66;76.82;100373.63;126335;1099;104276;-79
2021/11/08 01:24:56;;;;;;;29.13;14.87;;;;;;;12.67;76.54;100375.39;126285;1099;104139;-79
2021/11/08 01:27:34;;;;;;;30.75;15.53;;;;;;;12.70;76.98;100365.85;126367;1099;104143;-78
2021/11/08 01:30:12;;;;;;;31.77;14.67;;;;;;;12.72;76.86;100363.25;126242;1099;104168;-79
2021/11/08 01:32:53;;;;;;;32.43;15.50;;;;;;;12.71;76.75;100353.56;126325;1099;104175;-78
2021/11/08 01:35:30;;;;;;;31.73;15.53;;;;;;;12.70;76.85;100341.24;126315;1099;104312;-79
2021/11/08 01:38:05;;;;;;;30.30;14.97;;;;;;;12.68;76.58;100332.43;126283;1099;104152;-79
2021/11/08 01:40:37;;;;;;;31.40;15.63;;;;;;;12.65;76.80;100348.15;126279;1099;104177;-80
2021/11/08 01:43:15;;;;;;;30.07;14.83;;;;;;;12.61;77.11;100347.19;126187;1099;104194;-78
2021/11/08 01:45:46;;;;;;;32.03;16.17;;;;;;;12.56;76.61;100349.70;126261;1099;104149;-79
2021/11/08 01:48:16;;;;;;;32.60;16.30;;;;;;;12.55;77.05;100374.23;126345;1099;104631;-79
2021/11/08 01:50:49;;;;;;;32.07;15.70;;;;;;;12.54;77.26;100375.11;126183;1099;102312;-78
2021/11/08 01:53:21;;;;;;;31.17;15.23;;;;;;;12.52;77.11;100373.28;126298;1099;104182;-78
2021/11/08 01:55:54;;;;;;;31.60;16.43;;;;;;;12.49;77.07;100376.70;126299;1099;104143;-79
2021/11/08 01:58:29;;;;;;;31.80;16.07;;;;;;;12.44;76.83;100380.97;126318;1099;104300;-79
2021/11/08 02:01:01;;;;;;;30.07;16.50;;;;;;;12.43;77.04;100373.04;126296;1099;104165;-79
2021/11/08 02:03:34;;;;;;;31.68;15.25;;;;;;;12.39;77.07;100367.69;126255;1099;104153;-80
2021/11/08 02:06:05;;;;;;;31.30;16.37;;;;;;;12.38;77.21;100371.16;126316;1099;104149;-76
2021/11/08 02:08:38;;;;;;;33.05;17.05;;;;;;;12.35;77.27;100363.19;126319;1099;104274;-79
2021/11/08 02:11:09;;;;;;;34.93;17.10;;;;;;;12.30;77.29;100356.92;126204;1099;104248;-79
2021/11/08 02:13:46;;;;;;;31.70;16.23;;;;;;;12.26;77.18;100357.69;126319;1098;104174;-80
2021/11/08 02:16:21;;;;;;;34.63;17.37;;;;;;;12.23;77.28;100360.23;126293;1098;104341;-79
2021/11/08 02:18:53;;;;;;;30.47;17.17;;;;;;;12.22;77.62;100369.00;126215;1098;104191;-78
2021/11/08 02:21:26;;;;;;;34.45;17.77;;;;;;;12.22;77.44;100363.73;125558;1099;104204;-80
2021/11/08 02:24:02;;;;;;;34.53;17.83;;;;;;;12.22;77.41;100366.36;126292;1099;104702;-78
2021/11/08 02:26:36;;;;;;;31.30;16.83;;;;;;;12.21;77.27;100354.93;126271;1099;104342;-79
2021/11/08 02:29:09;;;;;;;33.90;16.63;;;;;;;12.20;77.11;100358.44;126302;1099;104194;-80
2021/11/08 02:31:43;;;;;;;31.23;16.37;;;;;;;12.19;77.32;100369.80;126204;1098;104198;-78
2021/11/08 02:34:18;;;;;;;31.07;16.73;;;;;;;12.16;77.37;100372.34;125365;1099;104730;-79
2021/11/08 02:36:49;;;;;;;33.23;16.90;;;;;;;12.14;77.48;100352.09;126278;1099;104141;-78
2021/11/08 02:39:26;;;;;;;32.20;16.43;;;;;;;12.13;77.76;100338.06;126303;1099;104220;-80
2021/11/08 02:42:00;;;;;;;32.50;16.73;;;;;;;12.13;77.64;100352.96;126236;1099;104156;-79
2021/11/08 02:44:33;;;;;;;32.43;16.33;;;;;;;12.13;77.70;100351.21;126245;1099;104137;-78
2021/11/08 02:47:03;;;;;;;31.50;16.87;;;;;;;12.12;77.84;100361.69;126225;1099;104246;-79
2021/11/08 02:49:39;;;;;;;31.33;15.90;;;;;;;12.12;77.69;100351.17;126345;1099;104641;-79
2021/11/08 02:52:12;;;;;;;34.47;17.33;;;;;;;12.09;78.41;100328.33;126231;1099;104247;-79
2021/11/08 02:54:45;;;;;;;34.05;17.35;;;;;;;12.09;78.13;100341.48;126285;1099;104134;-79
2021/11/08 02:57:17;;;;;;;33.15;18.77;;;;;;;12.07;78.05;100327.38;126282;1099;104216;-80
2021/11/08 02:59:48;;;;;;;29.60;16.10;;;;;;;12.09;78.06;100330.05;126299;1099;104213;-79
2021/11/08 03:02:19;;;;;;;34.33;17.33;;;;;;;12.07;78.26;100335.27;126300;1099;104207;-78
2021/11/08 03:04:53;;;;;;;32.70;16.63;;;;;;;12.09;78.19;100345.83;126348;1099;104149;-79
2021/11/08 03:07:29;;;;;;;33.63;18.67;;;;;;;12.08;78.25;100339.69;126353;1099;104197;-80
2021/11/08 03:10:03;;;;;;;30.87;17.20;;;;;;;12.09;78.22;100352.00;126341;1099;104191;-79
2021/11/08 03:12:36;;;;;;;36.00;18.10;;;;;;;12.10;78.17;100344.98;126258;1099;104146;-80
2021/11/08 03:15:11;;;;;;;33.18;17.48;;;;;;;12.09;78.15;100357.26;126346;1099;104238;-79
2021/11/08 03:17:44;;;;;;;34.53;17.70;;;;;;;12.08;78.19;100365.11;126326;1099;104217;-79
2021/11/08 03:20:19;;;;;;;34.45;18.20;;;;;;;12.08;78.50;100387.03;126307;1099;104220;-80
2021/11/08 03:22:53;;;;;;;34.83;19.03;;;;;;;12.08;78.36;100373.00;126168;1099;104229;-79
2021/11/08 03:25:34;;;;;;;;;;;;;;;12.08;78.35;100375.63;126348;1099;104147;-79
2021/11/08 03:28:08;;;;;;;34.23;17.63;;;;;;;12.05;78.45;100368.53;126302;1099;104225;-79
2021/11/08 03:30:42;;;;;;;35.40;18.57;;;;;;;12.02;78.43;100389.48;126291;1099;104146;-79
2021/11/08 03:33:13;;;;;;;;;;;;;;;12.02;79.03;100356.18;126312;1098;104191;-78
2021/11/08 03:35:44;;;;;;;36.67;18.23;;;;;;;11.99;78.76;100368.36;126269;1099;104216;-79
2021/11/08 03:38:18;;;;;;;37.13;18.20;;;;;;;11.96;78.50;100365.65;126346;1099;104169;-79
2021/11/08 03:40:49;;;;;;;32.87;17.33;;;;;;;11.96;78.69;100382.30;126347;1099;104143;-79
2021/11/08 03:43:21;;;;;;;36.00;18.03;;;;;;;11.95;78.63;100379.63;126311;1099;104169;-78
2021/11/08 03:45:53;;;;;;;34.85;17.75;;;;;;;11.95;78.83;100372.66;126278;1099;104284;-79
2021/11/08 03:48:34;;;;;;;34.67;18.27;;;;;;;11.96;78.71;100376.16;126311;1099;104191;-79
2021/11/08 03:51:05;;;;;;;32.83;18.63;;;;;;;11.94;78.64;100396.28;126280;1099;104165;-79
2021/11/08 03:53:35;;;;;;;34.87;18.27;;;;;;;11.93;78.88;100386.59;126281;1099;104150;-79
2021/11/08 03:56:08;;;;;;;37.57;18.83;;;;;;;11.92;78.87;100380.45;126327;1099;104175;-79
2021/11/08 03:58:39;;;;;;;33.27;18.00;;;;;;;11.91;78.97;100362.86;126322;1099;104201;-78
2021/11/08 04:01:09;;;;;;;38.77;19.00;;;;;;;11.91;79.03;100377.75;126294;1099;104133;-79
2021/11/08 04:03:40;;;;;;;37.57;18.93;;;;;;;11.93;79.01;100394.48;126303;1099;105521;-80
2021/11/08 04:06:12;;;;;;;33.80;18.43;;;;;;;11.94;79.18;100399.79;126301;1099;104224;-80
2021/11/08 04:08:43;;;;;;;32.53;17.70;;;;;;;11.95;79.00;100395.41;126338;1099;104236;-80
2021/11/08 04:11:14;;;;;;;36.23;19.00;;;;;;;11.95;78.89;100412.10;126302;1099;104320;-79
2021/11/08 04:13:45;;;;;;;34.53;18.92;;;;;;;11.97;79.21;100396.36;126259;1099;104240;-79
2021/11/08 04:16:18;;;;;;;35.00;18.33;;;;;;;11.97;79.23;100399.87;126333;1099;104153;-79
2021/11/08 04:18:51;;;;;;;32.00;18.35;;;;;;;11.94;79.11;100394.53;126346;1099;104169;-79
2021/11/08 04:21:22;;;;;;;31.67;18.00;;;;;;;11.93;79.66;100400.63;126251;1099;104204;-80
2021/11/08 04:23:53;;;;;;;35.37;18.90;;;;;;;11.94;79.19;100399.79;126281;1099;104389;-80
2021/11/08 04:26:27;;;;;;;34.13;18.60;;;;;;;11.96;79.20;100416.48;126290;1099;104217;-80
2021/11/08 04:29:01;;;;;;;;;;;;;;;11.95;79.48;100417.36;126330;1099;104296;-79
2021/11/08 04:31:35;;;;;;;35.17;19.40;;;;;;;11.95;79.26;100416.45;126310;1099;104252;-78
2021/11/08 04:34:18;;;;;;;34.40;18.57;;;;;;;11.96;79.19;100421.75;126271;1099;104201;-78
2021/11/08 04:39:47;;;;;;;34.33;17.67;;;;;;;11.92;79.43;100422.53;126336;1099;104140;-78
2021/11/08 04:42:22;;;;;;;34.27;18.77;;;;;;;11.89;79.42;100427.66;126355;1099;104440;-78
2021/11/08 04:45:14;;;;;;;45.87;23.10;;;;;;;11.84;79.69;100419.64;126322;1098;104242;-79
2021/11/08 04:50:31;;;;;;;63.60;33.20;;;;;;;11.79;79.40;100431.73;126285;1099;104177;-80
2021/11/08 04:53:21;;;;;;;70.67;36.60;;;;;;;11.80;79.61;100435.28;126374;1099;104195;-79
2021/11/08 05:23:01;;;;;;;41.13;22.07;;;;;;;11.77;79.59;100485.14;126254;1099;104248;-77
2021/11/08 05:30:55;;;;;;;38.20;21.23;;;;;;;11.59;80.30;100480.19;126317;1099;104213;-79
2021/11/08 05:33:26;;;;;;;39.03;21.00;;;;;;;11.59;80.28;100464.42;126310;1099;104220;-78
2021/11/08 05:35:57;;;;;;;39.17;21.93;;;;;;;11.61;80.20;100462.72;126265;1098;104188;-78
2021/11/08 05:38:29;;;;;;;37.30;21.43;;;;;;;11.63;80.53;100482.08;126334;1099;104211;-78
2021/11/08 05:41:00;;;;;;;37.87;21.20;;;;;;;11.67;80.29;100512.84;126285;1099;104217;-78
2021/11/08 05:43:30;;;;;;;41.17;21.70;;;;;;;11.65;81.02;100544.34;126287;1099;104140;-78
2021/11/08 05:46:01;;;;;;;38.17;21.63;;;;;;;11.61;80.91;100575.73;126278;1099;104219;-78
2021/11/08 05:48:32;;;;;;;40.53;21.90;;;;;;;11.56;80.67;100574.70;126304;1099;104146;-78
2021/11/08 05:51:02;;;;;;;40.37;21.63;;;;;;;11.53;80.80;100532.55;126324;1099;104149;-77
2021/11/08 05:53:33;;;;;;;38.45;19.05;;;;;;;11.50;80.96;100522.86;126209;1099;104223;-77
2021/11/08 05:56:10;;;;;;;41.10;20.93;;;;;;;11.47;80.75;100513.12;126261;1099;104210;-78
2021/11/08 05:58:59;;;;;;;36.17;20.50;;;;;;;11.47;80.96;100486.84;126321;1099;104143;-77
2021/11/08 06:50:37;;;;;;;38.67;21.43;;;;;;;11.45;81.80;100566.46;125928;1099;104303;-78
2021/11/08 06:53:17;;;;;;;37.53;21.93;;;;;;;11.45;81.96;100572.63;126179;1099;104290;-79
2021/11/08 06:55:51;;;;;;;43.30;22.17;;;;;;;11.45;82.21;100592.73;125925;1099;104175;-79
2021/11/08 06:58:27;;;;;;;39.50;22.10;;;;;;;11.45;82.20;100603.24;126303;1098;104319;-79
2021/11/08 07:01:03;;;;;;;44.17;22.77;;;;;;;11.42;81.89;100603.14;126173;1099;104143;-78
2021/11/08 07:03:35;;;;;;;41.57;22.10;;;;;;;11.40;82.91;100600.46;126071;1099;104176;-77
2021/11/08 07:06:11;;;;;;;40.77;23.70;;;;;;;11.37;82.26;100599.47;126113;1099;104146;-78
2021/11/08 07:08:42;;;;;;;41.73;22.40;;;;;;;11.34;82.39;100605.50;126258;1099;110763;-77
2021/11/08 07:11:17;;;;;;;44.47;24.00;;;;;;;11.35;82.19;100617.81;126328;1099;104149;-77
2021/11/08 07:13:49;;;;;;;43.63;23.03;;;;;;;11.35;82.71;100645.83;126007;1099;104203;-78
2021/11/08 07:16:25;;;;;;;43.80;23.15;;;;;;;11.36;82.68;100642.34;125992;1099;104153;-79
2021/11/08 07:18:59;;;;;;;41.67;23.43;;;;;;;11.36;82.84;100630.12;126022;1099;104197;-79
2021/11/08 07:21:31;;;;;;;39.77;21.67;;;;;;;11.35;82.94;100612.55;126262;1098;104140;-79
2021/11/08 07:24:04;;;;;;;41.47;21.60;;;;;;;11.34;82.65;100597.63;126194;1099;104287;-79
2021/11/08 07:26:36;;;;;;;;;;;;;;;11.35;83.00;100569.64;126064;1099;104130;-79
2021/11/08 07:29:22;;;;;;;40.03;21.53;;;;;;;11.36;83.15;100546.05;125995;1099;104200;-76
2021/11/08 07:32:11;;;;;;;41.95;23.85;;;;;;;11.41;83.13;100557.59;126005;1099;104313;-78
2021/11/08 07:34:43;;;;;;;42.23;24.33;;;;;;;11.50;82.82;100567.53;126114;1099;104788;-77
2021/11/08 07:37:26;;;;;;;41.37;22.97;;;;;;;11.55;83.48;100565.93;126179;1098;104159;-78
2021/11/08 07:40:19;;;;;;;41.20;23.10;;;;;;;11.59;83.07;100570.42;126013;1099;104367;-79
2021/11/08 07:42:57;;;;;;;42.17;23.57;;;;;;;11.65;82.93;100581.14;126074;1099;104179;-78
2021/11/08 07:45:38;;;;;;;42.90;23.57;;;;;;;11.71;82.75;100587.46;126144;1099;104156;-79
2021/11/08 07:48:41;;;;;;;44.03;24.73;;;;;;;11.83;82.85;100596.63;125420;1099;104239;-77
2021/11/08 07:51:38;;;;;;;39.53;21.77;;;;;;;11.97;83.08;100612.88;125528;1102;101850;-78
2021/11/08 07:54:42;;;;;;;39.30;21.80;;;;;;;12.01;82.74;100624.38;125764;1099;104144;-77
2021/11/08 07:57:54;;;;;;;36.13;20.33;;;;;;;12.15;82.91;100630.96;125902;1099;104367;-78
2021/11/08 08:00:35;;;;;;;34.27;19.33;;;;;;;12.27;82.93;100627.83;126296;1099;104168;-79
2021/11/08 08:03:11;;;;;;;34.53;19.80;;;;;;;12.34;82.95;100628.90;126058;1099;104169;-79
2021/11/08 08:05:46;;;;;;;32.13;18.60;;;;;;;12.49;83.11;100621.47;126188;1099;104188;-78
2021/11/08 08:08:18;;;;;;;28.40;17.13;;;;;;;12.53;82.72;100614.58;126216;1099;104178;-76
2021/11/08 08:10:52;;;;;;;28.73;16.47;;;;;;;12.47;82.02;100631.08;126114;1099;107853;-77
2021/11/08 08:13:27;;;;;;;31.20;18.07;;;;;;;12.40;82.04;100629.09;126244;1097;104160;-78
2021/11/08 08:16:05;;;;;;;28.07;17.33;;;;;;;12.47;81.83;100643.34;126215;1099;104146;-78
2021/11/08 08:18:40;;;;;;;29.67;17.43;;;;;;;12.47;81.37;100662.66;126162;1099;104175;-78
2021/11/08 08:21:15;;;;;;;30.20;16.63;;;;;;;12.43;81.01;100647.60;126198;1099;104262;-77
2021/11/08 08:23:48;;;;;;;26.67;15.37;;;;;;;12.39;81.06;100648.38;126098;1099;104172;-77
2021/11/08 08:26:18;;;;;;;;;;;;;;;12.38;78.55;100651.84;126199;1098;104153;-77
2021/11/08 08:28:52;;;;;;;27.13;15.60;;;;;;;12.41;80.24;100644.05;126086;1099;104185;-77
2021/11/08 08:31:30;;;;;;;27.30;13.93;;;;;;;12.46;79.69;100641.55;126008;1099;104188;-77
2021/11/08 08:34:10;;;;;;;24.23;11.87;;;;;;;12.46;78.07;100658.23;126080;1099;104178;-79
2021/11/08 08:36:48;;;;;;;25.67;12.03;;;;;;;12.48;78.13;100659.19;126152;1099;104583;-78
2021/11/08 08:39:21;;;;;;;24.93;12.27;;;;;;;12.56;78.02;100664.69;126107;1099;104201;-78
2021/11/08 08:41:55;;;;;;;23.73;11.25;;;;;;;12.69;78.51;100655.41;126087;1099;104146;-77
2021/11/08 08:44:40;;;;;;;;;;;;;;;12.83;77.32;100655.81;126256;1099;104152;-79
2021/11/08 08:47:24;;;;;;;23.50;11.43;;;;;;;12.88;76.53;100660.34;125443;1099;104226;-78
2021/11/08 08:50:02;;;;;;;23.87;11.97;;;;;;;12.88;74.89;100657.70;125909;1099;104272;-78
2021/11/08 08:52:35;;;;;;;22.60;11.13;;;;;;;12.88;76.66;100657.70;126234;1098;104150;-78
2021/11/08 08:55:22;;;;;;;22.90;11.10;;;;;;;12.91;76.56;100657.80;126135;1098;104325;-79
2021/11/08 08:57:55;;;;;;;25.37;12.30;;;;;;;12.95;75.45;100662.31;126397;1097;104217;-77
2021/11/08 09:00:29;;;;;;;20.93;10.97;;;;;;;13.01;76.49;100669.52;126078;1099;105512;-78
2021/11/08 09:03:05;;;;;;;20.20;10.60;;;;;;;13.03;75.71;100656.39;126229;1099;104134;-79
2021/11/08 09:05:37;;;;;;;22.73;11.40;;;;;;;13.03;74.72;100662.53;126334;1099;104149;-77
2021/11/08 09:08:10;;;;;;;21.60;10.87;;;;;;;13.03;74.54;100665.17;126060;1099;104137;-78
2021/11/08 09:10:46;;;;;;;21.67;10.80;;;;;;;13.01;74.33;100684.41;126339;1099;105408;-77
2021/11/08 09:13:19;;;;;;;22.63;10.67;;;;;;;12.95;72.57;100700.94;126122;1099;104133;-79
2021/11/08 09:15:52;;;;;;;21.80;10.33;;;;;;;12.93;73.25;100710.52;126169;1099;104149;-77
2021/11/08 09:18:22;;;;;;;;;;;;;;;12.97;71.26;100715.04;126176;1099;104171;-79
2021/11/08 09:20:55;;;;;;;23.53;10.67;;;;;;;13.06;72.96;100722.33;125345;1099;104284;-79
2021/11/08 09:23:28;;;;;;;22.37;11.03;;;;;;;13.05;72.43;100704.73;126245;1099;104165;-78
2021/11/08 09:26:02;;;;;;;21.93;10.57;;;;;;;13.05;71.85;100712.63;126370;1099;104245;-80
2021/11/08 09:28:37;;;;;;;22.00;10.07;;;;;;;13.12;71.57;100710.22;126213;1099;104281;-80
2021/11/08 09:31:10;;;;;;;19.47;9.47;;;;;;;13.21;71.42;100709.56;126142;1099;104172;-79
2021/11/08 09:33:45;;;;;;;18.83;8.80;;;;;;;13.22;70.60;100705.21;126174;1099;104230;-79
2021/11/08 09:36:19;;;;;;;18.83;7.97;;;;;;;13.18;67.15;100700.69;126284;1099;104168;-78
2021/11/08 09:38:54;;;;;;;17.67;8.23;;;;;;;13.23;68.92;100702.63;126280;1099;104254;-79
2021/11/08 09:41:29;;;;;;;15.57;7.03;;;;;;;13.38;69.23;100706.55;126094;1099;104159;-77
2021/11/08 09:44:07;;;;;;;17.73;7.30;;;;;;;13.48;69.39;100713.88;125292;1099;104252;-77
2021/11/08 09:46:43;;;;;;;13.73;6.77;;;;;;;13.57;67.08;100715.85;126225;1099;104622;-78
2021/11/08 09:49:16;;;;;;;17.47;7.57;;;;;;;13.62;63.60;100714.25;126204;1099;104271;-78
2021/11/08 09:51:51;;;;;;;17.80;8.30;;;;;;;13.79;68.08;100710.31;126025;1099;104361;-78
2021/11/08 09:54:27;;;;;;;19.33;8.90;;;;;;;13.95;67.96;100708.06;126144;1099;104310;-78
2021/11/08 09:57:03;;;;;;;18.20;8.17;;;;;;;14.10;68.29;100710.17;125341;1099;104251;-78
2021/11/08 09:59:36;;;;;;;18.83;8.60;;;;;;;14.19;66.83;100705.13;126273;1099;104217;-77
2021/11/08 10:02:14;;;;;;;17.60;8.23;;;;;;;14.22;66.54;100691.12;126059;1099;105639;-78
2021/11/08 10:04:49;;;;;;;19.40;8.60;;;;;;;14.25;66.57;100673.59;126077;1099;104281;-76
2021/11/08 10:07:22;;;;;;;18.07;8.03;;;;;;;14.31;67.37;100660.55;125988;1098;104198;-76
2021/11/08 10:09:57;;;;;;;18.00;8.07;;;;;;;14.41;66.37;100658.12;126085;1099;104236;-76
2021/11/08 10:12:30;;;;;;;21.57;9.10;;;;;;;14.50;67.03;100648.64;126037;1099;105441;-79
2021/11/08 10:15:08;;;;;;;21.25;8.60;;;;;;;14.50;66.75;100642.48;126022;1099;104182;-77
2021/11/08 10:17:42;;;;;;;19.63;9.10;;;;;;;14.57;67.28;100649.69;125257;1099;104287;-76
2021/11/08 10:20:30;;;;;;;19.50;8.73;;;;;;;14.55;65.96;100649.66;125245;1099;104434;-79
2021/11/08 10:23:04;;;;;;;16.67;7.90;;;;;;;14.55;65.30;100646.10;125218;1099;104207;-77
2021/11/08 10:25:43;;;;;;;16.20;7.50;;;;;;;14.46;65.08;100637.98;125100;1099;104223;-75
2021/11/08 10:28:20;;;;;;;16.80;7.60;;;;;;;14.38;61.81;100646.64;125169;1102;104178;-78
2021/11/08 10:31:01;;;;;;;14.67;7.10;;;;;;;14.21;60.91;100645.38;125190;1101;104149;-77
2021/11/08 10:33:36;;;;;;;15.13;6.90;;;;;;;14.15;61.88;100625.00;125290;1099;107839;-76
2021/11/08 10:36:12;;;;;;;15.60;7.63;;;;;;;14.09;63.55;100635.41;125303;1100;104427;-78
2021/11/08 10:38:47;;;;;;;16.00;7.53;;;;;;;14.10;64.19;100631.92;125229;1102;104286;-77
2021/11/08 10:41:21;;;;;;;16.57;7.17;;;;;;;14.11;63.17;100640.72;125186;1102;104415;-77
2021/11/08 10:43:58;;;;;;;18.33;7.43;;;;;;;14.06;62.70;100645.89;125253;1099;118972;-77
2021/11/08 10:46:36;;;;;;;14.85;7.00;;;;;;;14.01;62.53;100658.97;125205;1099;104152;-76
2021/11/08 10:49:13;;;;;;;14.67;6.90;;;;;;;14.05;62.75;100653.77;125605;1099;104229;-77
2021/11/08 10:51:48;;;;;;;14.83;7.03;;;;;;;14.02;62.72;100657.22;126197;1099;104150;-78
2021/11/08 10:54:24;;;;;;;16.37;5.97;;;;;;;13.97;61.93;100651.83;126117;1099;104213;-78
2021/11/08 10:57:06;;;;;;;13.10;5.80;;;;;;;13.96;61.93;100652.70;126106;1099;104259;-78
2021/11/08 10:59:43;;;;;;;14.13;6.70;;;;;;;13.94;60.73;100651.75;126044;1099;104302;-79
2021/11/08 11:02:17;;;;;;;13.17;6.10;;;;;;;13.86;60.35;100644.52;126196;1099;104255;-78
2021/11/08 11:04:55;;;;;;;;;;;;;;;13.73;59.09;100652.12;126028;1098;104169;-79
2021/11/08 11:07:29;;;;;;;15.07;7.17;;;;;;;13.59;59.29;100654.41;125898;1099;104627;-79
2021/11/08 11:10:12;;;;;;;16.07;6.63;;;;;;;13.54;60.02;100655.13;125127;1102;104129;-79
2021/11/08 11:12:50;;;;;;;17.07;7.37;;;;;;;13.45;59.04;100661.08;125093;1100;104293;-78
2021/11/08 11:15:54;;;;;;;15.27;6.70;;;;;;;13.40;58.87;100670.58;125196;1102;104224;-80
2021/11/08 11:19:04;;;;;;;15.70;7.40;;;;;;;13.37;59.83;100668.78;125283;1102;104300;-79
2021/11/08 11:21:36;;;;;;;15.57;7.60;;;;;;;13.33;60.33;100660.70;125229;1102;104162;-79
2021/11/08 11:24:19;;;;;;;20.40;8.20;;;;;;;13.33;59.90;100664.27;125210;1102;104146;-78
2021/11/08 11:26:53;;;;;;;20.17;8.47;;;;;;;13.28;60.16;100655.31;125067;1102;104591;-78
2021/11/08 11:29:32;;;;;;;18.80;9.33;;;;;;;13.27;60.11;100641.22;125121;1102;104238;-79
2021/11/08 11:32:05;;;;;;;18.60;9.15;;;;;;;13.32;59.86;100638.71;125124;1102;104143;-79
2021/11/08 11:34:43;;;;;;;19.60;9.43;;;;;;;13.36;59.73;100634.47;125158;1102;104280;-79
2021/11/08 11:37:20;;;;;;;22.27;10.03;;;;;;;13.29;60.01;100639.55;125125;1102;104335;-79
2021/11/08 11:40:10;;;;;;;20.37;10.07;;;;;;;13.27;60.14;100638.59;125080;1099;104309;-79
2021/11/08 11:42:59;;;;;;;20.43;9.40;;;;;;;13.22;60.01;100624.41;125952;1099;104303;-78
2021/11/08 11:45:47;;;;;;;19.37;8.90;;;;;;;13.12;59.14;100625.91;125883;1099;110685;-79
2021/11/08 11:48:21;;;;;;;21.63;10.50;;;;;;;12.94;59.54;100635.94;126240;1099;104245;-78
2021/11/08 11:50:55;;;;;;;19.07;9.75;;;;;;;12.87;59.69;100650.68;126233;1099;104146;-77
2021/11/08 11:53:31;;;;;;;20.67;9.63;;;;;;;12.84;59.45;100665.47;126130;1099;104666;-78
2021/11/08 11:56:04;;;;;;;19.37;8.63;;;;;;;12.84;59.64;100670.74;126166;1099;104262;-77
2021/11/08 11:58:43;;;;;;;19.70;10.00;;;;;;;12.84;59.73;100682.19;126247;1099;104165;-77
2021/11/08 12:01:19;;;;;;;20.00;9.77;;;;;;;12.82;59.19;100678.59;126227;1099;104274;-77
2021/11/08 12:03:52;;;;;;;21.60;10.10;;;;;;;12.83;59.71;100685.66;126225;1099;104210;-79
2021/11/08 12:06:27;;;;;;;20.10;9.20;;;;;;;12.80;59.62;100682.94;126212;1099;104313;-78
2021/11/08 12:09:00;;;;;;;19.00;8.83;;;;;;;12.75;59.89;100682.80;126106;1099;104647;-76
2021/11/08 12:11:35;;;;;;;18.67;9.23;;;;;;;12.72;59.99;100682.70;126136;1099;104191;-77
2021/11/08 12:14:15;;;;;;;22.10;10.07;;;;;;;12.73;60.00;100696.75;126263;1099;104155;-77
2021/11/08 12:16:59;;;;;;;19.00;9.77;;;;;;;12.73;59.58;100699.39;126256;1099;104197;-77
2021/11/08 12:19:35;;;;;;;18.17;8.43;;;;;;;12.70;59.77;100688.77;126218;1099;104376;-77
2021/11/08 12:22:20;;;;;;;20.50;9.23;;;;;;;12.70;59.85;100680.86;126268;1099;104146;-78
2021/11/08 12:25:00;;;;;;;20.03;8.83;;;;;;;12.62;59.91;100696.46;126034;1099;104150;-76
2021/11/08 12:27:46;;;;;;;18.07;8.97;;;;;;;12.52;60.06;100697.89;126187;1098;104277;-76
2021/11/08 12:30:22;;;;;;;18.87;9.70;;;;;;;12.47;60.21;100727.57;126156;1099;104268;-75
2021/11/08 12:32:57;;;;;;;21.87;10.90;;;;;;;12.38;60.68;100733.42;126131;1099;104270;-76
2021/11/08 12:35:34;;;;;;;20.10;9.73;;;;;;;12.34;60.68;100742.05;126238;1097;104184;-78
2021/11/08 12:38:18;;;;;;;21.57;10.47;;;;;;;12.29;60.82;100734.00;126230;1099;104139;-77
2021/11/08 12:41:03;;;;;;;21.37;10.77;;;;;;;12.23;60.83;100739.06;126316;1098;104242;-77
2021/11/08 12:43:57;;;;;;;20.10;9.97;;;;;;;12.16;60.58;100742.36;126214;1099;104224;-79
2021/11/08 12:46:36;;;;;;;19.63;8.67;;;;;;;12.15;60.74;100744.08;126085;1099;104317;-77
2021/11/08 12:49:11;;;;;;;17.53;8.77;;;;;;;12.14;60.77;100747.57;126275;1099;104156;-78
2021/11/08 12:51:55;;;;;;;18.87;8.93;;;;;;;12.10;60.86;100740.41;126314;1099;104146;-78
2021/11/08 12:54:29;;;;;;;20.60;8.57;;;;;;;12.04;61.04;100754.27;126311;1099;104140;-78
2021/11/08 12:57:11;;;;;;;19.60;9.30;;;;;;;12.04;60.99;100734.94;126158;1099;104213;-80
2021/11/08 12:59:46;;;;;;;18.30;8.97;;;;;;;12.05;61.20;100739.38;126268;1099;104345;-77
2021/11/08 13:02:27;;;;;;;17.87;8.77;;;;;;;12.06;61.21;100749.06;126346;1099;104259;-77
2021/11/08 13:05:01;;;;;;;18.20;9.10;;;;;;;12.01;61.70;100748.91;126243;1097;104182;-78